createdAt,value
2022-10-21T00:00:53.788Z,1015.85
2022-10-21T00:10:34.340Z,1015.66
2022-10-21T00:30:02.460Z,1015.38
2022-10-21T00:34:57.929Z,1015.29
2022-10-21T00:39:50.959Z,1015.26
2022-10-21T00:44:43.565Z,1015.15
2022-10-21T00:49:36.417Z,1015.1
2022-10-21T00:54:28.780Z,1015.1
2022-10-21T00:59:23.943Z,1015.03
2022-10-21T01:04:16.026Z,1015.02
2022-10-21T01:09:08.640Z,1014.96
2022-10-21T01:14:01.530Z,1014.92
2022-10-21T01:18:48.472Z,1015.08
2022-10-21T01:23:42.520Z,1015.14
2022-10-21T01:28:30.428Z,1015.19
2022-10-21T01:33:25.498Z,1015.2
2022-10-21T01:38:12.530Z,1015.2
2022-10-21T01:43:08.375Z,1015.16
2022-10-21T01:48:03.943Z,1015.09
2022-10-21T01:52:56.043Z,1015
2022-10-21T01:57:48.964Z,1014.97
2022-10-21T02:02:43.737Z,1014.85
2022-10-21T02:07:35.795Z,1014.82
2022-10-21T02:12:30.833Z,1014.81
2022-10-21T02:17:24.840Z,1014.77
2022-10-21T02:22:17.008Z,1014.66
2022-10-21T02:27:11.883Z,1014.59
2022-10-21T02:32:03.913Z,1014.45
2022-10-21T02:36:56.665Z,1014.44
2022-10-21T02:41:49.023Z,1014.44
2022-10-21T02:46:41.856Z,1014.51
2022-10-21T02:51:36.600Z,1014.47
2022-10-21T02:56:30.682Z,1014.44
2022-10-21T03:01:25.090Z,1014.4
2022-10-21T03:06:11.435Z,1014.41
2022-10-21T03:11:06.807Z,1014.42
2022-10-21T03:16:02.294Z,1014.42
2022-10-21T03:20:54.293Z,1014.16
2022-10-21T03:25:47.016Z,1014.29
2022-10-21T03:30:41.492Z,1014.16
2022-10-21T03:35:27.976Z,1014.17
2022-10-21T03:40:21.619Z,1013.99
2022-10-21T03:45:10.377Z,1013.99
2022-10-21T03:50:03.390Z,1013.88
2022-10-21T03:54:58.596Z,1013.84
2022-10-21T03:59:50.952Z,1013.75
2022-10-21T04:04:43.686Z,1013.78
2022-10-21T04:09:36.829Z,1013.64
2022-10-21T04:14:31.594Z,1013.64
2022-10-21T04:19:18.432Z,1013.59
2022-10-21T04:24:12.306Z,1013.66
2022-10-21T04:29:06.187Z,1013.69
2022-10-21T04:34:01.387Z,1013.73
2022-10-21T04:38:47.597Z,1013.66
2022-10-21T04:43:41.376Z,1013.62
2022-10-21T04:48:37.351Z,1013.64
2022-10-21T04:53:29.878Z,1013.77
2022-10-21T04:58:22.173Z,1013.7
2022-10-21T05:03:16.896Z,1013.66
2022-10-21T05:08:10.707Z,1013.69
2022-10-21T05:13:01.704Z,1013.52
2022-10-21T05:17:54.428Z,1013.51
2022-10-21T05:22:41.230Z,1013.49
2022-10-21T05:27:34.509Z,1013.42
2022-10-21T05:32:28.870Z,1013.3
2022-10-21T05:37:21.944Z,1013.25
2022-10-21T05:47:11.525Z,1013.01
2022-10-21T05:56:51.358Z,1012.96
2022-10-21T06:06:34.741Z,1013.03
2022-10-21T06:16:22.421Z,1012.94
2022-10-21T06:21:14.712Z,1012.89
2022-10-21T06:26:09.464Z,1012.87
2022-10-21T06:30:56.004Z,1012.87
2022-10-21T06:35:49.486Z,1012.9
2022-10-21T06:40:43.503Z,1012.96
2022-10-21T06:45:36.278Z,1012.97
2022-10-21T06:50:28.937Z,1012.95
2022-10-21T06:55:23.974Z,1012.97
2022-10-21T07:00:10.645Z,1012.9
2022-10-21T07:05:04.570Z,1013.03
2022-10-21T07:09:58.455Z,1013.13
2022-10-21T07:14:51.303Z,1013.2
2022-10-21T07:19:43.960Z,1013.05
2022-10-21T07:24:38.342Z,1012.99
2022-10-21T07:29:30.540Z,1012.96
2022-10-21T07:34:23.476Z,1012.93
2022-10-21T07:39:10.434Z,1012.89
2022-10-21T07:44:04.438Z,1012.86
2022-10-21T07:48:51.871Z,1012.86
2022-10-21T07:53:45.547Z,1012.77
2022-10-21T07:58:40.920Z,1012.76
2022-10-21T08:03:33.316Z,1012.77
2022-10-21T08:08:25.850Z,1012.78
2022-10-21T08:13:18.685Z,1012.82
2022-10-21T08:18:05.334Z,1012.9
2022-10-21T08:22:58.574Z,1012.78
2022-10-21T08:27:46.488Z,1012.81
2022-10-21T08:32:40.316Z,1012.85
2022-10-21T08:37:35.722Z,1012.87
2022-10-21T08:42:28.263Z,1012.75
2022-10-21T08:47:21.145Z,1012.67
2022-10-21T08:52:13.739Z,1012.73
2022-10-21T08:57:00.505Z,1012.84
2022-10-21T09:01:55.975Z,1012.79
2022-10-21T09:06:49.012Z,1012.72
2022-10-21T09:11:41.766Z,1012.72
2022-10-21T09:16:36.431Z,1012.75
2022-10-21T09:21:28.728Z,1012.76
2022-10-21T09:26:20.955Z,1012.75
2022-10-21T09:31:13.837Z,1012.81
2022-10-21T09:36:06.635Z,1012.75
2022-10-21T09:40:53.402Z,1012.8
2022-10-21T09:45:47.411Z,1012.83
2022-10-21T09:50:42.764Z,1012.88
2022-10-21T09:55:35.053Z,1012.79
2022-10-21T10:00:28.315Z,1012.77
2022-10-21T10:05:20.611Z,1012.79
2022-10-21T10:10:13.551Z,1012.73
2022-10-21T10:15:06.656Z,1012.76
2022-10-21T10:19:59.967Z,1012.69
2022-10-21T10:24:52.241Z,1012.74
2022-10-21T10:29:44.821Z,1012.68
2022-10-21T10:34:31.626Z,1012.63
2022-10-21T10:39:24.972Z,1012.53
2022-10-21T10:44:18.725Z,1012.56
2022-10-21T10:49:11.598Z,1012.46
2022-10-21T10:54:04.331Z,1012.37
2022-10-21T11:03:46.623Z,1012.32
2022-10-21T11:08:42.036Z,1012.36
2022-10-21T11:13:40.040Z,1012.38
2022-10-21T11:18:28.574Z,1012.42
2022-10-21T11:23:23.340Z,1012.52
2022-10-21T11:28:17.658Z,1012.51
2022-10-21T11:33:09.702Z,1012.58
2022-10-21T11:38:04.425Z,1012.55
2022-10-21T11:42:58.539Z,1012.43
2022-10-21T11:47:51.124Z,1012.4
2022-10-21T11:52:43.912Z,1012.32
2022-10-21T11:57:36.460Z,1012.25
2022-10-21T12:02:29.247Z,1012.09
2022-10-21T12:12:16.427Z,1012.2
2022-10-21T12:22:03.419Z,1012.23
2022-10-21T12:26:55.766Z,1012.22
2022-10-21T12:31:50.398Z,1012.29
2022-10-21T12:36:45.363Z,1012.3
2022-10-21T12:41:37.042Z,1012.29
2022-10-21T12:46:33.707Z,1012.2
2022-10-21T12:51:23.645Z,1012.02
2022-10-21T12:56:17.564Z,1011.97
2022-10-21T13:01:09.866Z,1012
2022-10-21T13:06:04.985Z,1012.04
2022-10-21T13:10:56.952Z,1011.94
2022-10-21T13:15:49.555Z,1011.97
2022-10-21T13:20:42.022Z,1012
2022-10-21T13:25:37.402Z,1011.97
2022-10-21T13:30:29.033Z,1011.9
2022-10-21T13:40:08.803Z,1011.87
2022-10-21T13:45:04.573Z,1011.81
2022-10-21T13:49:56.660Z,1011.82
2022-10-21T13:54:48.998Z,1011.81
2022-10-21T13:59:41.642Z,1011.77
2022-10-21T14:04:33.940Z,1011.8
2022-10-21T14:09:28.607Z,1011.8
2022-10-21T14:19:08.433Z,1011.97
2022-10-21T14:24:04.427Z,1012.02
2022-10-21T14:28:58.695Z,1012.12
2022-10-21T14:33:51.194Z,1012.13
2022-10-21T14:38:45.608Z,1012.07
2022-10-21T14:43:40.037Z,1012.08
2022-10-21T14:48:32.435Z,1012.02
2022-10-21T14:53:26.536Z,1012.11
2022-10-21T15:03:13.132Z,1012.02
2022-10-21T15:08:05.838Z,1012.12
2022-10-21T15:13:00.658Z,1012.06
2022-10-21T15:17:52.693Z,1012.12
2022-10-21T15:22:45.303Z,1012.13
2022-10-21T15:27:39.389Z,1012.19
2022-10-21T15:32:30.620Z,1012.25
2022-10-21T15:37:24.747Z,1012.41
2022-10-21T15:42:18.575Z,1012.36
2022-10-21T15:47:10.809Z,1012.34
2022-10-21T15:52:03.499Z,1012.37
2022-10-21T15:56:58.475Z,1012.36
2022-10-21T16:01:53.005Z,1012.37
2022-10-21T16:06:45.400Z,1012.57
2022-10-21T16:11:40.900Z,1012.63
2022-10-21T16:16:30.390Z,1012.65
2022-10-21T16:26:10.896Z,1012.59
2022-10-21T16:31:04.694Z,1012.51
2022-10-21T16:35:59.611Z,1012.42
2022-10-21T16:40:53.502Z,1012.54
2022-10-21T16:45:45.759Z,1012.65
2022-10-21T16:50:38.328Z,1012.66
2022-10-21T16:55:25.363Z,1012.67
2022-10-21T17:00:18.665Z,1012.78
2022-10-21T17:05:14.697Z,1012.84
2022-10-21T17:10:00.626Z,1012.92
2022-10-21T17:14:56.530Z,1012.96
2022-10-21T17:24:36.962Z,1012.97
2022-10-21T17:29:32.523Z,1012.89
2022-10-21T17:34:24.747Z,1013.07
2022-10-21T17:39:19.951Z,1012.96
2022-10-21T17:49:01.957Z,1013.11
2022-10-21T17:58:42.012Z,1012.97
2022-10-21T18:08:23.815Z,1012.95
2022-10-21T18:18:06.916Z,1012.87
2022-10-21T18:27:48.969Z,1012.92
2022-10-21T18:37:31.744Z,1012.84
2022-10-21T18:47:19.559Z,1012.83
2022-10-21T18:52:11.465Z,1012.86
2022-10-21T18:57:06.049Z,1012.9
2022-10-21T19:02:01.023Z,1012.8
2022-10-21T19:06:53.376Z,1012.85
2022-10-21T19:11:45.853Z,1012.94
2022-10-21T19:16:33.603Z,1012.89
2022-10-21T19:21:26.350Z,1012.93
2022-10-21T19:26:21.069Z,1012.93
2022-10-21T19:31:06.638Z,1012.91
2022-10-21T19:36:02.498Z,1012.95
2022-10-21T19:40:57.589Z,1013.01
2022-10-21T19:45:50.587Z,1013.08
2022-10-21T19:50:44.650Z,1012.98
2022-10-21T19:55:36.963Z,1013
2022-10-21T20:00:29.581Z,1013.05
2022-10-21T20:05:22.619Z,1013.02
2022-10-21T20:10:15.427Z,1013.03
2022-10-21T20:15:07.830Z,1013.08
2022-10-21T20:19:54.884Z,1013.15
2022-10-21T20:24:48.067Z,1013.17
2022-10-21T20:29:43.965Z,1013.06
2022-10-21T20:34:33.833Z,1013.04
2022-10-21T20:39:24.275Z,1013.04
2022-10-21T20:44:17.813Z,1013.15
2022-10-21T20:49:10.679Z,1013.14
2022-10-21T20:54:03.575Z,1013.26
2022-10-21T20:58:56.327Z,1013.44
2022-10-21T21:03:50.686Z,1013.56
2022-10-21T21:08:49.161Z,1013.63
2022-10-21T21:13:40.723Z,1013.66
2022-10-21T21:18:23.984Z,1013.47
2022-10-21T21:23:19.720Z,1013.44
2022-10-21T21:28:14.769Z,1013.32
2022-10-21T21:33:01.423Z,1013.09
2022-10-21T21:37:55.062Z,1013.18
2022-10-21T21:42:48.869Z,1013.31
2022-10-21T21:47:41.871Z,1013.47
2022-10-21T21:52:36.884Z,1013.52
2022-10-21T21:57:29.462Z,1013.51
2022-10-21T22:02:23.950Z,1013.35
2022-10-21T22:07:18.447Z,1013.08
2022-10-21T22:12:12.994Z,1013.03
2022-10-21T22:17:06.834Z,1013.01
2022-10-21T22:21:59.060Z,1012.76
2022-10-21T22:26:51.786Z,1012.76
2022-10-21T22:31:44.642Z,1012.69
2022-10-21T22:36:39.986Z,1012.82
2022-10-21T22:41:32.629Z,1012.92
2022-10-21T22:46:34.113Z,1012.97
2022-10-21T22:51:21.467Z,1013.01
2022-10-21T22:56:15.558Z,1013.18
2022-10-21T23:01:10.037Z,1013.01
2022-10-21T23:06:02.596Z,1013.13
2022-10-21T23:10:49.629Z,1012.82
2022-10-21T23:15:43.283Z,1013.07
2022-10-21T23:25:24.578Z,1012.96
2022-10-21T23:30:12.448Z,1013.11
2022-10-21T23:35:06.378Z,1013.19
2022-10-21T23:40:00.478Z,1013.01
2022-10-21T23:44:55.043Z,1012.73
2022-10-21T23:49:49.540Z,1012.72
2022-10-21T23:54:41.626Z,1012.83
2022-10-21T23:59:34.393Z,1012.93
